Hemby, North Carolina
Current Conditions -  °F | °C
As of 3:53 PM on Saturday 25 Oct 2014 (Local Time) from KEQY Reporting Station
Clear Clear  
Wind Chill: 73°   Ceiling: Unl
Heat Index: 73°   Visibility: 10mi
Dew Point: 35°   Wind: 7mph
Humidity: 25%   Direction: 240°WSW
Pressure: 29.95"   Gusts: NA
Location:  35.0963°N, 80.6145°W
Report Text: KEQY 251953Z AUTO 24006KT 10SM CLR 23/02 A2995 RMK AO2 SLP149 T02280017
Loading
Personal Weather Stations






























Interactive Weather Map
Tropical Storm Tracking
New forecast layout! Learn more

10-Day Weather Forecast

Advertisements
Track Severe Weather on mobile